Time;durP1;ratioP1;P1;durP2;ratioP2;P2;SDS_P1;SDS_P2;PMS_P1;PMS_P2;Temp;Humidity;BMP_temperature;BMP_pressure;BME280_temperature;BME280_humidity;BME280_pressure;Samples;Min_cycle;Max_cycle;Signal;HPM_P1;HPM_P2
2023/12/06 00:01:01;;;;;;;2.85;2.65;;;;;;;;;;5045813;28;20905;-74
2023/12/06 00:03:28;;;;;;;3.03;2.83;;;;;;;;;;5054204;28;20437;-74
2023/12/06 00:05:56;;;;;;;2.85;2.65;;;;;;;;;;5052512;28;20490;-73
2023/12/06 00:08:26;;;;;;;2.60;2.40;;;;;;;;;;5050194;28;22028;-73
2023/12/06 00:10:53;;;;;;;2.30;2.20;;;;;;;;;;5049209;28;20431;-74
2023/12/06 00:13:20;;;;;;;2.45;2.35;;;;;;;;;;5034140;28;20923;-73
2023/12/06 00:15:48;;;;;;;2.35;2.25;;;;;;;;;;5038729;28;20505;-73
2023/12/06 00:18:15;;;;;;;2.53;2.40;;;;;;;;;;5040782;28;20437;-74
2023/12/06 00:20:42;;;;;;;2.58;2.40;;;;;;;;;;5040041;28;20433;-73
2023/12/06 00:23:10;;;;;;;2.55;2.38;;;;;;;;;;5043739;28;20440;-73
2023/12/06 00:25:37;;;;;;;2.63;2.53;;;;;;;;;;5054124;28;20490;-73
2023/12/06 00:28:04;;;;;;;2.22;2.13;;;;;;;;;;5043120;28;20509;-73
2023/12/06 00:30:32;;;;;;;2.30;2.20;;;;;;;;;;5039854;28;20487;-73
2023/12/06 00:32:59;;;;;;;2.50;2.30;;;;;;;;;;5048967;28;20982;-74
2023/12/06 00:35:26;;;;;;;2.65;2.45;;;;;;;;;;5055994;28;20429;-73
2023/12/06 00:37:56;;;;;;;2.90;2.70;;;;;;;;;;5053127;28;20433;-73
2023/12/06 00:40:23;;;;;;;2.92;2.72;;;;;;;;;;5053678;28;20433;-73
2023/12/06 00:42:50;;;;;;;2.70;2.50;;;;;;;;;;5042232;28;20429;-73
2023/12/06 00:45:20;;;;;;;2.40;2.30;;;;;;;;;;5046787;28;20433;-73
2023/12/06 00:47:48;;;;;;;2.70;2.50;;;;;;;;;;5042109;28;20431;-73
2023/12/06 00:50:15;;;;;;;2.42;2.33;;;;;;;;;;5054485;28;20923;-73
2023/12/06 00:52:42;;;;;;;2.53;2.43;;;;;;;;;;5049631;28;20993;-73
2023/12/06 00:55:09;;;;;;;2.58;2.38;;;;;;;;;;5051252;28;20927;-73
2023/12/06 00:57:37;;;;;;;2.22;2.10;;;;;;;;;;5053194;28;20434;-73
2023/12/06 01:00:05;;;;;;;2.55;2.35;;;;;;;;;;5047195;28;20432;-73
2023/12/06 01:02:32;;;;;;;2.00;1.90;;;;;;;;;;5051684;28;20423;-73
2023/12/06 01:04:59;;;;;;;2.03;1.92;;;;;;;;;;5057311;28;20518;-73
2023/12/06 01:07:26;;;;;;;2.03;1.92;;;;;;;;;;5054696;28;20941;-73
2023/12/06 01:09:54;;;;;;;2.03;1.92;;;;;;;;;;5055673;28;20459;-73
2023/12/06 01:12:21;;;;;;;1.90;1.80;;;;;;;;;;5057888;28;20436;-73
2023/12/06 01:14:48;;;;;;;1.90;1.80;;;;;;;;;;5038884;28;20515;-73
2023/12/06 01:17:15;;;;;;;2.03;1.92;;;;;;;;;;5037723;28;20425;-73
2023/12/06 01:19:42;;;;;;;3.15;1.88;;;;;;;;;;5046994;28;20433;-72
2023/12/06 01:22:09;;;;;;;2.15;2.05;;;;;;;;;;5059205;28;20515;-72
2023/12/06 01:24:37;;;;;;;1.80;1.70;;;;;;;;;;5052041;28;20967;-73
2023/12/06 01:27:05;;;;;;;1.90;1.80;;;;;;;;;;5039269;28;20895;-72
2023/12/06 01:29:33;;;;;;;1.98;1.88;;;;;;;;;;5055330;28;20461;-73
2023/12/06 01:32:00;;;;;;;2.20;2.10;;;;;;;;;;5046915;28;20434;-73
2023/12/06 01:34:27;;;;;;;2.40;2.30;;;;;;;;;;5048526;28;20561;-73
2023/12/06 01:36:54;;;;;;;2.40;2.30;;;;;;;;;;5061266;28;21012;-73
2023/12/06 01:39:21;;;;;;;2.40;2.30;;;;;;;;;;5047040;28;20439;-72
2023/12/06 01:41:50;;;;;;;2.60;2.40;;;;;;;;;;5047793;28;20435;-73
2023/12/06 01:44:18;;;;;;;2.20;2.10;;;;;;;;;;5026950;28;20437;-72
2023/12/06 01:46:45;;;;;;;2.40;2.20;;;;;;;;;;5049600;28;20445;-73
2023/12/06 01:49:18;;;;;;;2.60;2.40;;;;;;;;;;5046024;28;21090;-73
2023/12/06 01:51:45;;;;;;;2.40;2.30;;;;;;;;;;5045317;28;20979;-73
2023/12/06 01:54:12;;;;;;;2.78;2.60;;;;;;;;;;5046624;28;21024;-73
2023/12/06 01:56:42;;;;;;;2.30;2.20;;;;;;;;;;5041315;28;20444;-73
2023/12/06 01:59:16;;;;;;;2.70;2.50;;;;;;;;;;5027727;28;20442;-73
2023/12/06 02:01:43;;;;;;;2.65;2.50;;;;;;;;;;5039111;28;20556;-73
2023/12/06 02:04:11;;;;;;;3.00;2.80;;;;;;;;;;5042369;28;20903;-73
2023/12/06 02:06:41;;;;;;;2.72;2.53;;;;;;;;;;5041952;28;20429;-73
2023/12/06 02:09:12;;;;;;;2.70;2.50;;;;;;;;;;5058707;28;20428;-72
2023/12/06 02:11:39;;;;;;;2.90;2.58;;;;;;;;;;5048685;28;20459;-72
2023/12/06 02:14:06;;;;;;;2.83;2.58;;;;;;;;;;5039860;28;20429;-72
2023/12/06 02:16:36;;;;;;;2.72;2.53;;;;;;;;;;5059504;28;20428;-72
2023/12/06 02:19:03;;;;;;;3.00;2.80;;;;;;;;;;5048063;28;20457;-72
2023/12/06 02:21:30;;;;;;;3.93;2.93;;;;;;;;;;5049525;28;20436;-72
2023/12/06 02:23:59;;;;;;;3.45;3.15;;;;;;;;;;5034425;28;20544;-72
2023/12/06 02:26:29;;;;;;;3.15;2.85;;;;;;;;;;5039827;28;20439;-72
2023/12/06 02:28:56;;;;;;;3.17;2.90;;;;;;;;;;5041935;28;20421;-72
2023/12/06 02:31:28;;;;;;;3.58;3.25;;;;;;;;;;5045794;28;20425;-72
2023/12/06 02:33:55;;;;;;;3.72;3.35;;;;;;;;;;5027908;28;20430;-72
2023/12/06 02:36:24;;;;;;;3.75;3.45;;;;;;;;;;5040425;28;20425;-72
2023/12/06 02:38:51;;;;;;;3.88;3.58;;;;;;;;;;5041608;28;20433;-72
2023/12/06 02:41:19;;;;;;;3.90;3.60;;;;;;;;;;5038713;28;20446;-72
2023/12/06 02:43:47;;;;;;;3.90;3.60;;;;;;;;;;5029874;28;20466;-72
2023/12/06 02:46:14;;;;;;;4.20;3.80;;;;;;;;;;5049541;28;21149;-72
2023/12/06 02:48:41;;;;;;;4.38;4.07;;;;;;;;;;5030610;28;20440;-72
2023/12/06 02:51:09;;;;;;;4.65;4.25;;;;;;;;;;5053165;28;20434;-72
2023/12/06 02:53:36;;;;;;;5.55;4.45;;;;;;;;;;5050499;28;20887;-72
2023/12/06 02:56:03;;;;;;;4.55;4.15;;;;;;;;;;5041381;28;20432;-72
2023/12/06 02:58:30;;;;;;;6.40;4.80;;;;;;;;;;5046089;28;20456;-72
2023/12/06 03:00:57;;;;;;;6.70;4.30;;;;;;;;;;5047506;28;20493;-72
2023/12/06 03:03:25;;;;;;;6.90;5.05;;;;;;;;;;5053043;28;20487;-72
2023/12/06 03:05:52;;;;;;;6.13;4.80;;;;;;;;;;5045381;28;20868;-72
2023/12/06 03:08:19;;;;;;;5.45;4.88;;;;;;;;;;5046961;28;20516;-72
2023/12/06 03:10:49;;;;;;;6.27;5.13;;;;;;;;;;5041864;28;20429;-72
2023/12/06 03:13:18;;;;;;;6.70;5.78;;;;;;;;;;5058698;28;20432;-71
2023/12/06 03:15:46;;;;;;;6.57;5.88;;;;;;;;;;5044911;28;20522;-72
2023/12/06 03:18:13;;;;;;;8.23;6.00;;;;;;;;;;5045854;28;20420;-72
2023/12/06 03:20:40;;;;;;;6.72;6.05;;;;;;;;;;5048590;28;20425;-72
2023/12/06 03:23:11;;;;;;;8.85;6.35;;;;;;;;;;5037136;28;20429;-72
2023/12/06 03:25:41;;;;;;;9.25;6.50;;;;;;;;;;5054773;28;20433;-72
2023/12/06 03:28:08;;;;;;;7.28;6.47;;;;;;;;;;5020979;28;20438;-72
2023/12/06 03:30:36;;;;;;;8.85;6.47;;;;;;;;;;5045078;28;20461;-72
2023/12/06 03:33:03;;;;;;;7.93;6.60;;;;;;;;;;5053249;28;20431;-72
2023/12/06 03:35:34;;;;;;;9.13;7.32;;;;;;;;;;5039889;28;20487;-72
2023/12/06 03:38:01;;;;;;;8.90;7.13;;;;;;;;;;5039949;28;20437;-72
2023/12/06 03:40:28;;;;;;;10.00;7.13;;;;;;;;;;5045321;28;20460;-72
2023/12/06 03:42:56;;;;;;;10.02;7.70;;;;;;;;;;5054595;28;20429;-72
2023/12/06 03:45:25;;;;;;;10.30;7.65;;;;;;;;;;5051531;28;20918;-72
2023/12/06 03:47:52;;;;;;;10.90;8.00;;;;;;;;;;5051123;28;20835;-71
2023/12/06 03:50:20;;;;;;;10.25;7.57;;;;;;;;;;5046348;28;20539;-71
2023/12/06 03:52:50;;;;;;;10.05;7.80;;;;;;;;;;5050425;28;20479;-72
2023/12/06 03:55:17;;;;;;;9.73;7.50;;;;;;;;;;5040844;28;20423;-72
2023/12/06 03:57:47;;;;;;;10.67;7.73;;;;;;;;;;5056186;28;20453;-72
2023/12/06 04:00:15;;;;;;;12.88;8.13;;;;;;;;;;5051495;28;20491;-72
2023/12/06 04:02:42;;;;;;;9.63;7.43;;;;;;;;;;5050138;28;20502;-71
2023/12/06 04:05:09;;;;;;;10.07;7.50;;;;;;;;;;5045040;28;20429;-72
2023/12/06 04:07:37;;;;;;;9.73;7.20;;;;;;;;;;5051651;28;20786;-72
2023/12/06 04:10:05;;;;;;;8.68;7.32;;;;;;;;;;5056857;28;20431;-72
2023/12/06 04:12:33;;;;;;;9.40;7.63;;;;;;;;;;5048217;28;20425;-72
2023/12/06 04:15:01;;;;;;;9.68;7.47;;;;;;;;;;5056517;28;20481;-72
2023/12/06 04:17:28;;;;;;;10.35;7.80;;;;;;;;;;5046203;28;20430;-72
2023/12/06 04:19:55;;;;;;;10.05;7.72;;;;;;;;;;5044839;28;20951;-72
2023/12/06 04:22:22;;;;;;;10.73;8.23;;;;;;;;;;5039556;28;20425;-72
2023/12/06 04:24:55;;;;;;;9.57;7.72;;;;;;;;;;5055807;28;21089;-72
2023/12/06 04:27:22;;;;;;;9.17;7.50;;;;;;;;;;5060459;28;20476;-71
2023/12/06 04:29:49;;;;;;;9.32;7.50;;;;;;;;;;5039108;28;21001;-72
2023/12/06 04:32:17;;;;;;;11.23;7.40;;;;;;;;;;5046937;28;20453;-71
2023/12/06 04:34:47;;;;;;;9.07;7.50;;;;;;;;;;5059619;28;20423;-73
2023/12/06 04:37:15;;;;;;;8.60;7.40;;;;;;;;;;5057367;28;20434;-72
2023/12/06 04:39:42;;;;;;;11.25;7.57;;;;;;;;;;5044956;28;20524;-72
2023/12/06 04:42:09;;;;;;;10.38;7.88;;;;;;;;;;5057406;28;20455;-72
2023/12/06 04:44:37;;;;;;;8.80;7.27;;;;;;;;;;5051691;28;20429;-72
2023/12/06 04:47:07;;;;;;;8.77;7.10;;;;;;;;;;5064854;28;20455;-72
2023/12/06 04:49:34;;;;;;;9.05;7.18;;;;;;;;;;5041674;28;20461;-72
2023/12/06 04:52:01;;;;;;;11.35;7.43;;;;;;;;;;5045117;28;20458;-72
2023/12/06 04:54:31;;;;;;;9.07;7.07;;;;;;;;;;5053198;28;20473;-72
2023/12/06 04:56:59;;;;;;;10.13;7.43;;;;;;;;;;5055480;28;20512;-72
2023/12/06 04:59:28;;;;;;;8.93;7.03;;;;;;;;;;5039956;28;20524;-72
2023/12/06 05:01:55;;;;;;;9.10;6.97;;;;;;;;;;5047845;28;20437;-73
2023/12/06 05:04:23;;;;;;;8.55;6.88;;;;;;;;;;5048276;28;21116;-72
2023/12/06 05:06:51;;;;;;;9.32;6.57;;;;;;;;;;5036875;28;20485;-72
2023/12/06 05:09:19;;;;;;;10.07;7.07;;;;;;;;;;5043041;28;20524;-72
2023/12/06 05:11:46;;;;;;;8.18;6.57;;;;;;;;;;5046836;28;20478;-72
2023/12/06 05:14:14;;;;;;;8.50;6.53;;;;;;;;;;5040072;28;20429;-72
2023/12/06 05:16:41;;;;;;;8.77;6.93;;;;;;;;;;5045745;28;20448;-72
2023/12/06 05:19:12;;;;;;;10.03;6.97;;;;;;;;;;5033771;28;20434;-72
2023/12/06 05:21:39;;;;;;;8.32;6.85;;;;;;;;;;5044990;28;20555;-72
2023/12/06 05:24:06;;;;;;;9.98;6.93;;;;;;;;;;5049914;28;20433;-72
2023/12/06 05:26:33;;;;;;;9.73;6.53;;;;;;;;;;5035356;28;20493;-72
2023/12/06 05:29:01;;;;;;;9.10;6.78;;;;;;;;;;5049463;28;20917;-72
2023/12/06 05:31:28;;;;;;;7.60;6.50;;;;;;;;;;5042800;28;20433;-72
2023/12/06 05:33:58;;;;;;;9.10;6.90;;;;;;;;;;5048176;28;20436;-72
2023/12/06 05:36:25;;;;;;;7.47;6.40;;;;;;;;;;5046695;28;20500;-72
2023/12/06 05:38:53;;;;;;;8.55;6.97;;;;;;;;;;5041538;28;20450;-72
2023/12/06 05:41:22;;;;;;;8.60;6.72;;;;;;;;;;5028696;28;20465;-72
2023/12/06 05:43:50;;;;;;;8.43;6.57;;;;;;;;;;5044745;28;20436;-72
2023/12/06 05:46:18;;;;;;;8.97;6.77;;;;;;;;;;5042246;28;20443;-71
2023/12/06 05:48:48;;;;;;;10.13;6.68;;;;;;;;;;5031946;28;20446;-72
2023/12/06 05:51:17;;;;;;;8.95;6.60;;;;;;;;;;5039630;28;20907;-71
2023/12/06 05:53:45;;;;;;;8.43;6.73;;;;;;;;;;5041366;28;20456;-71
2023/12/06 05:56:12;;;;;;;8.40;6.97;;;;;;;;;;5056120;28;20433;-71
2023/12/06 05:58:39;;;;;;;9.40;6.70;;;;;;;;;;5052893;28;20485;-72
2023/12/06 06:01:07;;;;;;;8.45;6.60;;;;;;;;;;5055055;28;20471;-71
2023/12/06 06:03:35;;;;;;;7.53;6.07;;;;;;;;;;5024857;28;20445;-72
2023/12/06 06:06:06;;;;;;;6.82;5.85;;;;;;;;;;5026478;28;20513;-71
2023/12/06 06:08:37;;;;;;;6.53;5.78;;;;;;;;;;5034942;28;20927;-73
2023/12/06 06:11:07;;;;;;;6.78;6.05;;;;;;;;;;5035335;28;20496;-71
2023/12/06 06:13:34;;;;;;;7.20;5.60;;;;;;;;;;5052037;28;20429;-71
2023/12/06 06:16:02;;;;;;;6.28;5.30;;;;;;;;;;5040261;28;20426;-72
2023/12/06 06:18:30;;;;;;;6.53;5.43;;;;;;;;;;5036597;28;20853;-71
2023/12/06 06:21:05;;;;;;;5.70;5.10;;;;;;;;;;5035686;28;20440;-71
2023/12/06 06:23:32;;;;;;;5.90;5.07;;;;;;;;;;5036843;28;21001;-72
2023/12/06 06:26:00;;;;;;;6.07;4.95;;;;;;;;;;5037923;28;20440;-71
2023/12/06 06:28:27;;;;;;;6.45;5.47;;;;;;;;;;5039149;28;20429;-72
2023/12/06 06:30:54;;;;;;;8.35;5.55;;;;;;;;;;5044109;28;20453;-72
2023/12/06 06:33:22;;;;;;;5.20;4.70;;;;;;;;;;5051961;28;20438;-72
2023/12/06 06:35:49;;;;;;;5.85;5.10;;;;;;;;;;5039660;28;20479;-71
2023/12/06 06:38:19;;;;;;;5.93;5.32;;;;;;;;;;5052708;28;20508;-72
2023/12/06 06:40:46;;;;;;;7.10;5.28;;;;;;;;;;5027025;28;20429;-71
2023/12/06 06:43:13;;;;;;;7.03;5.47;;;;;;;;;;5047608;28;20512;-71
2023/12/06 06:45:42;;;;;;;8.37;6.03;;;;;;;;;;5056332;28;20433;-72
2023/12/06 06:48:11;;;;;;;6.80;5.63;;;;;;;;;;5036911;28;20439;-71
2023/12/06 06:50:47;;;;;;;7.38;5.50;;;;;;;;;;5038243;28;20432;-71
2023/12/06 06:53:17;;;;;;;6.10;5.47;;;;;;;;;;5044485;28;20920;-72
2023/12/06 06:55:47;;;;;;;7.00;5.65;;;;;;;;;;5039999;28;20499;-71
2023/12/06 06:58:14;;;;;;;6.80;5.80;;;;;;;;;;5042191;28;20426;-72
2023/12/06 07:00:43;;;;;;;7.43;5.53;;;;;;;;;;5033577;28;20437;-71
2023/12/06 07:03:11;;;;;;;5.57;4.97;;;;;;;;;;5043882;28;20460;-70
2023/12/06 07:05:40;;;;;;;6.18;5.13;;;;;;;;;;5043858;28;20465;-70
2023/12/06 07:08:09;;;;;;;6.13;5.20;;;;;;;;;;5040379;28;20478;-70
2023/12/06 07:10:38;;;;;;;5.40;4.90;;;;;;;;;;5032807;28;20521;-69
2023/12/06 07:13:06;;;;;;;5.80;5.10;;;;;;;;;;5037744;28;20432;-70
2023/12/06 07:15:34;;;;;;;5.88;5.32;;;;;;;;;;5038906;28;20460;-70
2023/12/06 07:18:02;;;;;;;6.47;5.50;;;;;;;;;;5053815;28;21065;-69
2023/12/06 07:20:29;;;;;;;6.45;5.85;;;;;;;;;;5040696;28;20455;-69
2023/12/06 07:23:09;;;;;;;6.17;5.57;;;;;;;;;;5042451;28;20463;-69
2023/12/06 07:25:36;;;;;;;6.35;5.30;;;;;;;;;;5039675;28;20532;-70
2023/12/06 07:28:04;;;;;;;7.07;5.70;;;;;;;;;;5048972;28;20437;-69
2023/12/06 07:30:31;;;;;;;6.47;5.68;;;;;;;;;;5039044;28;20516;-70
2023/12/06 07:32:58;;;;;;;6.40;5.60;;;;;;;;;;5041116;28;20429;-69
2023/12/06 07:35:25;;;;;;;6.45;5.65;;;;;;;;;;5032138;28;20518;-69
2023/12/06 07:37:53;;;;;;;6.38;5.63;;;;;;;;;;5037196;28;20441;-69
2023/12/06 07:40:24;;;;;;;6.75;5.78;;;;;;;;;;5044274;28;20514;-70
2023/12/06 07:42:51;;;;;;;6.18;5.57;;;;;;;;;;5039702;28;20979;-70
2023/12/06 07:45:19;;;;;;;6.30;5.43;;;;;;;;;;5041921;28;20800;-70
2023/12/06 07:47:49;;;;;;;5.90;5.30;;;;;;;;;;5040668;28;21115;-70
2023/12/06 07:50:16;;;;;;;6.32;5.53;;;;;;;;;;5037992;28;20441;-70
2023/12/06 07:52:43;;;;;;;6.20;5.60;;;;;;;;;;5043662;28;21142;-70
2023/12/06 07:55:12;;;;;;;5.95;5.32;;;;;;;;;;5046715;28;20974;-70
2023/12/06 07:57:40;;;;;;;6.82;5.70;;;;;;;;;;5043181;28;20462;-71
2023/12/06 08:00:14;;;;;;;6.47;5.80;;;;;;;;;;5028826;28;20441;-70
2023/12/06 08:02:42;;;;;;;7.30;6.15;;;;;;;;;;5045804;28;20463;-70
2023/12/06 08:05:10;;;;;;;6.83;5.83;;;;;;;;;;5032142;28;20440;-70
2023/12/06 08:07:38;;;;;;;6.82;5.75;;;;;;;;;;5058247;28;20455;-69
2023/12/06 08:10:19;;;;;;;7.50;6.00;;;;;;;;;;5056864;28;20433;-69
2023/12/06 08:12:47;;;;;;;6.80;6.07;;;;;;;;;;5041623;28;20445;-69
2023/12/06 08:15:14;;;;;;;6.60;5.43;;;;;;;;;;5043881;28;20460;-70
2023/12/06 08:17:44;;;;;;;6.45;5.30;;;;;;;;;;5053570;28;20481;-69
2023/12/06 08:20:17;;;;;;;6.25;4.85;;;;;;;;;;5061925;28;20431;-69
2023/12/06 08:22:44;;;;;;;6.82;5.18;;;;;;;;;;5047542;28;20435;-69
2023/12/06 08:25:11;;;;;;;6.65;5.05;;;;;;;;;;5044224;28;20526;-69
2023/12/06 08:27:39;;;;;;;6.68;5.30;;;;;;;;;;5033685;28;20448;-69
2023/12/06 08:30:07;;;;;;;5.17;4.67;;;;;;;;;;5052234;28;20429;-69
2023/12/06 08:32:34;;;;;;;5.93;5.30;;;;;;;;;;5051345;28;20437;-69
2023/12/06 08:35:01;;;;;;;7.80;5.13;;;;;;;;;;5056867;28;20446;-69
2023/12/06 08:37:28;;;;;;;6.30;5.05;;;;;;;;;;5050486;28;20837;-69
2023/12/06 08:39:56;;;;;;;6.07;5.13;;;;;;;;;;5048043;28;20431;-69
2023/12/06 08:42:29;;;;;;;7.13;5.45;;;;;;;;;;5055483;28;20487;-70
2023/12/06 08:44:56;;;;;;;5.53;5.03;;;;;;;;;;5048370;28;20428;-70
2023/12/06 08:47:24;;;;;;;5.80;5.20;;;;;;;;;;5035001;28;20447;-70
2023/12/06 08:49:55;;;;;;;6.70;5.55;;;;;;;;;;5041954;28;20478;-70
2023/12/06 08:52:22;;;;;;;6.13;5.53;;;;;;;;;;5048591;28;20440;-69
2023/12/06 08:54:50;;;;;;;7.35;5.78;;;;;;;;;;5043266;28;20423;-71
2023/12/06 08:57:17;;;;;;;6.88;5.90;;;;;;;;;;5057483;28;20539;-71
2023/12/06 08:59:44;;;;;;;7.15;5.80;;;;;;;;;;5060814;28;20968;-71
2023/12/06 09:02:11;;;;;;;7.65;6.15;;;;;;;;;;5054585;28;20432;-71
2023/12/06 09:04:39;;;;;;;6.28;5.65;;;;;;;;;;5053309;28;20482;-71
2023/12/06 09:07:06;;;;;;;7.45;6.30;;;;;;;;;;5045847;28;20961;-71
2023/12/06 09:09:33;;;;;;;7.80;6.53;;;;;;;;;;5046548;28;20464;-71
2023/12/06 09:12:00;;;;;;;7.45;6.40;;;;;;;;;;5062030;28;20454;-71
2023/12/06 09:14:33;;;;;;;8.55;6.22;;;;;;;;;;5055906;28;20425;-70
2023/12/06 09:17:03;;;;;;;7.33;6.20;;;;;;;;;;5053461;28;20782;-71
2023/12/06 09:19:30;;;;;;;7.65;6.60;;;;;;;;;;5012292;28;20526;-71
2023/12/06 09:22:06;;;;;;;6.97;6.22;;;;;;;;;;5043194;28;20482;-71
2023/12/06 09:24:34;;;;;;;9.23;7.10;;;;;;;;;;5036729;28;20484;-71
2023/12/06 09:27:01;;;;;;;7.05;6.35;;;;;;;;;;5038681;28;20462;-71
2023/12/06 09:29:29;;;;;;;8.13;6.17;;;;;;;;;;5038985;28;20786;-71
2023/12/06 09:31:56;;;;;;;7.47;6.60;;;;;;;;;;5049429;28;20429;-69
2023/12/06 09:34:23;;;;;;;8.30;6.70;;;;;;;;;;5038006;28;20959;-69
2023/12/06 09:37:05;;;;;;;7.60;6.82;;;;;;;;;;5036224;28;20440;-69
2023/12/06 09:39:32;;;;;;;8.70;7.10;;;;;;;;;;5033279;28;20436;-69
2023/12/06 09:41:59;;;;;;;7.10;6.20;;;;;;;;;;5056242;28;20483;-68
2023/12/06 09:44:26;;;;;;;8.27;6.60;;;;;;;;;;5030845;28;20444;-69
2023/12/06 09:46:54;;;;;;;8.35;7.00;;;;;;;;;;5045042;28;20487;-68
2023/12/06 09:49:22;;;;;;;7.90;6.90;;;;;;;;;;5048223;28;20466;-69
2023/12/06 09:51:50;;;;;;;8.15;6.60;;;;;;;;;;5059904;28;20434;-69
2023/12/06 09:54:17;;;;;;;9.05;6.95;;;;;;;;;;5050618;28;20515;-69
2023/12/06 09:56:45;;;;;;;7.67;6.87;;;;;;;;;;5031530;28;20420;-69
2023/12/06 09:59:12;;;;;;;9.23;6.97;;;;;;;;;;5042393;28;20512;-69
2023/12/06 10:01:39;;;;;;;7.18;6.43;;;;;;;;;;5045245;28;20494;-69
2023/12/06 10:04:07;;;;;;;7.55;6.75;;;;;;;;;;5053103;28;20463;-69
2023/12/06 10:06:34;;;;;;;7.15;6.43;;;;;;;;;;5042402;28;20425;-68
2023/12/06 10:09:01;;;;;;;8.88;7.05;;;;;;;;;;5032289;28;20436;-69
2023/12/06 10:11:28;;;;;;;8.65;6.47;;;;;;;;;;5041502;28;21982;-68
2023/12/06 10:13:56;;;;;;;8.27;6.80;;;;;;;;;;5042686;28;20437;-68
2023/12/06 10:16:23;;;;;;;7.63;6.75;;;;;;;;;;5018354;28;20425;-69
2023/12/06 10:18:55;;;;;;;11.02;7.57;;;;;;;;;;5039623;28;20927;-68
2023/12/06 10:21:22;;;;;;;11.27;6.93;;;;;;;;;;5034452;28;20439;-68
2023/12/06 10:23:57;;;;;;;11.03;7.07;;;;;;;;;;5048468;28;20519;-68
2023/12/06 10:26:29;;;;;;;10.52;7.05;;;;;;;;;;5044681;28;20446;-69
2023/12/06 10:28:58;;;;;;;7.90;6.47;;;;;;;;;;5035736;28;20437;-69
2023/12/06 10:31:26;;;;;;;7.78;6.57;;;;;;;;;;5043419;28;20449;-69
2023/12/06 10:33:55;;;;;;;9.32;7.05;;;;;;;;;;5040792;28;20503;-69
2023/12/06 10:36:24;;;;;;;13.57;7.63;;;;;;;;;;5050727;28;20425;-69
2023/12/06 10:38:52;;;;;;;9.50;7.05;;;;;;;;;;5035570;28;20513;-69
2023/12/06 10:41:21;;;;;;;13.00;7.60;;;;;;;;;;5037010;28;20448;-69
2023/12/06 10:43:48;;;;;;;8.90;7.37;;;;;;;;;;5028745;28;20434;-69
2023/12/06 10:46:17;;;;;;;8.32;6.90;;;;;;;;;;5040238;28;20440;-69
2023/12/06 10:48:46;;;;;;;7.10;6.22;;;;;;;;;;5019447;28;20471;-69
2023/12/06 10:51:15;;;;;;;6.45;5.35;;;;;;;;;;5039716;28;20433;-69
2023/12/06 10:53:43;;;;;;;6.57;5.53;;;;;;;;;;5047474;28;20448;-70
2023/12/06 10:56:11;;;;;;;6.57;5.88;;;;;;;;;;5036582;28;20434;-70
2023/12/06 10:58:39;;;;;;;8.07;5.78;;;;;;;;;;5050044;28;20433;-70
2023/12/06 11:01:06;;;;;;;6.28;5.68;;;;;;;;;;5013351;28;20955;-72
2023/12/06 11:03:33;;;;;;;6.22;5.63;;;;;;;;;;5037570;28;20456;-70
2023/12/06 11:06:06;;;;;;;6.07;5.47;;;;;;;;;;5042631;28;20482;-69
2023/12/06 11:08:39;;;;;;;7.43;6.40;;;;;;;;;;5034720;28;20447;-70
2023/12/06 11:11:38;;;;;;;6.93;6.15;;;;;;;;;;5031299;28;20441;-71
2023/12/06 11:14:11;;;;;;;7.00;6.15;;;;;;;;;;4995973;28;20963;-70
2023/12/06 11:17:02;;;;;;;6.15;5.53;;;;;;;;;;4987891;28;20435;-71
2023/12/06 11:19:29;;;;;;;5.88;5.30;;;;;;;;;;5001481;28;20520;-70
2023/12/06 11:21:57;;;;;;;7.63;5.18;;;;;;;;;;4997055;28;20436;-71
2023/12/06 11:24:24;;;;;;;8.03;5.63;;;;;;;;;;4994869;28;20439;-72
2023/12/06 11:26:51;;;;;;;7.03;5.90;;;;;;;;;;4996400;28;20473;-72
2023/12/06 11:29:19;;;;;;;7.50;5.75;;;;;;;;;;4998817;28;20436;-71
2023/12/06 11:31:52;;;;;;;6.47;5.88;;;;;;;;;;4998511;28;20436;-70
2023/12/06 11:34:19;;;;;;;7.40;6.13;;;;;;;;;;5001131;28;20448;-71
2023/12/06 11:36:56;;;;;;;6.80;5.87;;;;;;;;;;4999329;28;20436;-71
2023/12/06 11:39:24;;;;;;;6.82;5.85;;;;;;;;;;4982141;28;20448;-70
2023/12/06 11:41:55;;;;;;;5.80;5.28;;;;;;;;;;4998333;28;20436;-70
2023/12/06 11:44:22;;;;;;;6.60;5.97;;;;;;;;;;5003699;28;20427;-70
2023/12/06 11:46:52;;;;;;;5.65;5.00;;;;;;;;;;4996608;28;20441;-70
2023/12/06 11:49:23;;;;;;;5.78;5.00;;;;;;;;;;5017285;28;21254;-70
2023/12/06 11:51:59;;;;;;;6.18;5.50;;;;;;;;;;5044091;28;20433;-70
2023/12/06 11:54:27;;;;;;;5.87;5.27;;;;;;;;;;5038176;28;20429;-70
2023/12/06 11:57:15;;;;;;;6.22;5.70;;;;;;;;;;5050247;28;20429;-70
2023/12/06 11:59:44;;;;;;;6.85;6.15;;;;;;;;;;5046733;28;20439;-70
2023/12/06 12:02:11;;;;;;;6.57;5.97;;;;;;;;;;5040457;28;20526;-70
2023/12/06 12:04:39;;;;;;;7.68;6.25;;;;;;;;;;5036278;28;20440;-70
2023/12/06 12:07:06;;;;;;;7.28;6.18;;;;;;;;;;5035133;28;20435;-70
2023/12/06 12:09:34;;;;;;;8.43;6.20;;;;;;;;;;5048697;28;20434;-70
2023/12/06 12:12:01;;;;;;;7.28;6.05;;;;;;;;;;5017238;28;20505;-70
2023/12/06 12:14:37;;;;;;;7.22;6.50;;;;;;;;;;5020988;28;20524;-70
2023/12/06 12:17:04;;;;;;;7.25;6.50;;;;;;;;;;5054478;28;20436;-70
2023/12/06 12:19:32;;;;;;;6.72;5.93;;;;;;;;;;5040429;28;20454;-70
2023/12/06 12:22:03;;;;;;;6.22;5.63;;;;;;;;;;5039511;28;20443;-70
2023/12/06 12:24:31;;;;;;;6.60;5.72;;;;;;;;;;5042980;28;20433;-70
2023/12/06 12:26:59;;;;;;;7.20;6.50;;;;;;;;;;5048674;28;20503;-69
2023/12/06 12:29:27;;;;;;;6.93;6.20;;;;;;;;;;5046268;28;20764;-70
2023/12/06 12:31:55;;;;;;;6.68;6.07;;;;;;;;;;5034616;28;20438;-70
2023/12/06 12:34:22;;;;;;;6.33;5.73;;;;;;;;;;5031159;28;20437;-70
2023/12/06 12:36:50;;;;;;;6.15;5.45;;;;;;;;;;5034710;28;21049;-70
2023/12/06 12:39:17;;;;;;;5.78;5.22;;;;;;;;;;5048901;28;20436;-70
2023/12/06 12:41:44;;;;;;;6.57;5.90;;;;;;;;;;5050585;28;20781;-70
2023/12/06 12:44:11;;;;;;;7.07;6.37;;;;;;;;;;5050235;28;20435;-70
2023/12/06 12:46:39;;;;;;;6.50;5.80;;;;;;;;;;5037129;28;20443;-70
2023/12/06 12:49:18;;;;;;;6.88;6.03;;;;;;;;;;5041288;28;20442;-70
2023/12/06 12:51:46;;;;;;;6.05;5.45;;;;;;;;;;5049393;28;20455;-70
2023/12/06 12:54:18;;;;;;;6.47;5.75;;;;;;;;;;5039000;28;20433;-70
2023/12/06 12:56:45;;;;;;;7.07;6.00;;;;;;;;;;5049135;28;21096;-70
2023/12/06 12:59:12;;;;;;;6.03;5.43;;;;;;;;;;5041069;28;20460;-70
2023/12/06 13:01:41;;;;;;;6.45;5.60;;;;;;;;;;5041820;28;20444;-70
2023/12/06 13:04:10;;;;;;;6.85;5.70;;;;;;;;;;5046230;28;20431;-70
2023/12/06 13:06:41;;;;;;;6.88;5.65;;;;;;;;;;5042751;28;20523;-69
2023/12/06 13:09:13;;;;;;;8.02;6.20;;;;;;;;;;5053205;28;20531;-69
2023/12/06 13:11:41;;;;;;;9.00;5.90;;;;;;;;;;5049924;28;20435;-69
2023/12/06 13:14:08;;;;;;;6.93;5.83;;;;;;;;;;5045202;28;20918;-69
2023/12/06 13:16:35;;;;;;;7.03;5.60;;;;;;;;;;5048675;28;20425;-72
2023/12/06 13:19:03;;;;;;;6.43;5.70;;;;;;;;;;5048116;28;20425;-70
2023/12/06 13:21:32;;;;;;;5.93;5.40;;;;;;;;;;5043301;28;20429;-70
2023/12/06 13:23:59;;;;;;;6.53;5.53;;;;;;;;;;5040481;28;20429;-70
2023/12/06 13:26:26;;;;;;;5.72;5.20;;;;;;;;;;5048378;28;20444;-70
2023/12/06 13:28:53;;;;;;;6.38;5.72;;;;;;;;;;5047409;28;20494;-70
2023/12/06 13:31:20;;;;;;;7.63;6.20;;;;;;;;;;5039721;28;20444;-70
2023/12/06 13:33:48;;;;;;;7.13;6.43;;;;;;;;;;5049250;28;20433;-70
2023/12/06 13:36:15;;;;;;;6.97;6.20;;;;;;;;;;5052472;28;20829;-70
2023/12/06 13:38:42;;;;;;;7.20;6.32;;;;;;;;;;5055121;28;20493;-70
2023/12/06 13:41:09;;;;;;;6.90;5.83;;;;;;;;;;5044312;28;20435;-70
2023/12/06 13:43:37;;;;;;;7.55;6.70;;;;;;;;;;5027498;28;20444;-70
2023/12/06 13:46:04;;;;;;;7.55;6.15;;;;;;;;;;5048689;28;20433;-70
2023/12/06 13:48:31;;;;;;;8.00;6.78;;;;;;;;;;5018971;28;20433;-70
2023/12/06 13:50:58;;;;;;;10.90;7.13;;;;;;;;;;5048479;28;20429;-70
2023/12/06 13:53:25;;;;;;;8.70;6.60;;;;;;;;;;5047755;28;20528;-70
2023/12/06 13:55:52;;;;;;;7.65;6.70;;;;;;;;;;5053715;28;20429;-70
2023/12/06 13:58:20;;;;;;;7.47;6.15;;;;;;;;;;5047588;28;20811;-70
2023/12/06 14:00:47;;;;;;;8.05;6.43;;;;;;;;;;5046724;28;20426;-70
2023/12/06 14:03:15;;;;;;;8.02;5.78;;;;;;;;;;5034654;28;20427;-70
2023/12/06 14:05:42;;;;;;;6.55;5.80;;;;;;;;;;5044300;28;20437;-70
2023/12/06 14:08:11;;;;;;;6.73;6.03;;;;;;;;;;5044013;28;20417;-70
2023/12/06 14:10:38;;;;;;;6.72;6.03;;;;;;;;;;5031394;28;20435;-70
2023/12/06 14:13:06;;;;;;;9.90;6.25;;;;;;;;;;5037981;28;20429;-70
2023/12/06 14:15:33;;;;;;;9.27;6.07;;;;;;;;;;5040485;28;20437;-70
2023/12/06 14:18:01;;;;;;;10.48;6.72;;;;;;;;;;5033615;28;21049;-70
2023/12/06 14:20:28;;;;;;;7.30;6.20;;;;;;;;;;5047782;28;20431;-70
2023/12/06 14:22:55;;;;;;;7.55;6.15;;;;;;;;;;5022812;28;20425;-70
2023/12/06 14:25:22;;;;;;;6.87;5.83;;;;;;;;;;5037705;28;20439;-70
2023/12/06 14:27:51;;;;;;;7.00;6.00;;;;;;;;;;5029275;28;20472;-70
2023/12/06 14:30:18;;;;;;;8.90;6.40;;;;;;;;;;5033964;28;20437;-70
2023/12/06 14:32:45;;;;;;;7.72;6.70;;;;;;;;;;5025521;28;20437;-70
2023/12/06 14:35:12;;;;;;;8.65;7.00;;;;;;;;;;5039242;28;20460;-70
2023/12/06 14:37:40;;;;;;;9.00;6.80;;;;;;;;;;5044365;28;20436;-70
2023/12/06 14:40:08;;;;;;;12.17;8.70;;;;;;;;;;5045467;28;20433;-70
2023/12/06 14:42:35;;;;;;;10.85;8.52;;;;;;;;;;5041306;28;20791;-70
2023/12/06 14:45:02;;;;;;;10.75;7.90;;;;;;;;;;5039484;28;20515;-70
2023/12/06 14:47:29;;;;;;;10.73;8.07;;;;;;;;;;5036584;28;20442;-70